Flight Track Log - Related Links

Times and Time Zones

All times are in EDT time to prevent confusion due to time zone crossing. See the LXJ262 flight status page for this flight to view local times or setup timezone preferences in your user account.

Time Position Orientation Groundspeed Altitude Reporting Facility
EDT Latitude Longitude Course Direction KTS MPH feet Rate Location/Type
Sat 10:41:37 AM 36.1139 -115.1531 285° West 207 238 4,100  Level Los Angeles Center
Sat 10:42:43 AM 36.1261 -115.2083 285° West 252 290 6,600 3,891 Climbing Los Angeles Center
Sat 10:43:45 AM 36.1003 -115.2875 248° West 251 289 12,400 5,512 Climbing Los Angeles Center
Sat 10:44:46 AM 35.9964 -115.3036 187° South 314 361 17,900 3,805 Climbing Los Angeles Center
Sat 10:45:48 AM 35.8939 -115.3017 179° South 350 403 20,200 2,000 Climbing Los Angeles Center
Sat 10:46:49 AM 35.7733 -115.2975 178° South 413 475 22,000 878 Climbing Los Angeles Center
Sat 10:47:51 AM 35.6400 -115.2931 178° South 466 536 22,000  Level Los Angeles Center
Sat 10:48:52 AM 35.5072 -115.3003 183° South 475 547 22,000  Level Los Angeles Center
Sat 10:49:54 AM 35.3767 -115.3047 182° South 470 541 22,000  Level Los Angeles Center
Sat 10:50:55 AM 35.2447 -115.3094 182° South 472 543 22,000  Level Los Angeles Center
Sat 10:51:57 AM 35.1214 -115.3147 182° South 469 540 22,000  Level Los Angeles Center
Sat 10:52:58 AM 34.9711 -115.3200 182° South 456 525 22,000  Level Los Angeles Center
Sat 10:54:00 AM 34.8411 -115.3250 182° South 447 514 22,000  Level Los Angeles Center
Sat 10:55:01 AM 34.7233 -115.3556 192° South 439 505 22,000  Level Los Angeles Center
Sat 10:56:03 AM 34.6111 -115.4025 199° South 428 493 22,000  Level Los Angeles Center
Sat 10:57:04 AM 34.4992 -115.4525 200° South 428 493 22,000  Level Los Angeles Center
Sat 10:58:06 AM 34.3814 -115.5033 200° South 425 489 22,000 -293 Level Los Angeles Center
Sat 10:59:07 AM 34.2956 -115.5686 212° Southwest 421 484 21,400 -1,220 Descending Los Angeles Center
Sat 11:00:09 AM 34.2061 -115.6617 221° Southwest 426 490 19,500 -2,390 Descending Los Angeles Center
Sat 11:01:10 AM 34.1014 -115.7783 223° Southwest 427 491 16,500 -2,976 Descending Los Angeles Center
Sat 11:02:12 AM 34.0083 -115.8522 213° Southwest 405 466 13,400 -2,806 Descending Los Angeles Center
Sat 11:03:14 AM 33.9350 -115.9283 221° Southwest 363 418 10,700 -2,341 Descending Los Angeles Center
Sat 11:04:15 AM 33.8933 -116.0203 241° Southwest 328 377 8,600 -1,756 Descending Los Angeles Center
Sat 11:05:17 AM 33.8539 -116.1086 242° Southwest 309 356 7,100 -976 Descending Los Angeles Center
Sat 11:06:18 AM 33.8206 -116.1792 240° Southwest 287 330 6,600 -634 Descending Los Angeles Center
Sat 11:07:20 AM 33.7828 -116.2639 242° Southwest 277 319 5,800 -1,418 Descending Los Angeles Center
Sat 11:09:20 AM 33.7500 -116.4000 254° West 203 234 2,300 -1,392 Descending Southern California TRACON
Sat 11:10:21 AM 33.7833 -116.4667 301° West 163 188 1,600 -744 Descending Southern California TRACON
Sat 11:11:21 AM 33.8000 -116.4833 320° Northwest 143 165 800 -800 Descending Southern California TRACON
Sat 11:13:00 AM 33.8167 -116.5000 253° West  Level FlightAware Approximate
Sat 11:20:00 AM 33.8297 -116.5067 253° West  Level Estimated
Sat 11:21:00 AM 33.8297 -116.5067 253° West  Level Estimated

Login

Don't have an account? Register now (free) for customized features, flight alerts, and more!